Terminal Aerodrome Forecast
Issued by NWS Tallahassee, FL

Home | Current Version | Previous Version | Text Only | Print | Product List | Glossary On
Versions: 1 2 3 4 5 6 7 8 9 10 11 12 13 14 15
000
FTUS42 KTAE 160500
TAFTLH
TAF
KTLH 160540Z 1606/1706 16003KT P6SM FEW045 OVC070
     FM161200 22004KT P6SM VCTS SCT025CB OVC070
     FM161500 26007KT 4SM TSRA BKN030CB OVC060
      TEMPO 1618/1622 2SM +TSRA OVC025CB
     FM170000 29006KT 6SM -TSRA BKN025CB OVC100
     FM170400 36003KT P6SM SCT100 BKN250=

USA.gov is the U.S. government's official web portal to all federal, state and local government web resources and services.